Flight Track Log - Related Links

Times and Time Zones

All times are in EDT time to prevent confusion due to time zone crossing. See the ACA831 flight status page for this flight to view local times or setup timezone preferences in your user account.

Time Position Orientation Groundspeed Altitude Reporting Facility
EDT Latitude Longitude Course Direction KTS MPH feet Rate Location/Type
Sun 08:35:06 PM 45.4780 -73.7180 47° Northeast 14 16  Level FlightAware ADS-B
Sun 08:35:40 PM 45.4770 -73.7160 125° Southeast 10 12 267 Level FlightAware ADS-B
Sun 08:36:18 PM 45.4740 -73.7200 223° Southwest 76 87 429 Level FlightAware ADS-B
Sun 08:36:36 PM 45.4630 -73.7350 224° Southwest 172 198 400 2,455 Climbing FlightAware ADS-B
Sun 08:37:02 PM 45.4470 -73.7540 220° Southwest 177 204 1,800 2,706 Climbing FlightAware ADS-B
Sun 08:37:27 PM 45.4290 -73.7770 222° Southwest 222 255 2,700 3,455 Climbing FlightAware ADS-B
Sun 08:38:08 PM 45.3930 -73.8190 219° Southwest 257 296 5,600 4,300 Climbing FlightAware ADS-B
Sun 08:38:27 PM 45.3750 -73.8410 221° Southwest 261 300 7,000 4,588 Climbing FlightAware ADS-B
Sun 08:38:42 PM 45.3660 -73.8630 240° Southwest 256 295 8,200 4,560 Climbing FlightAware ADS-B
Sun 08:38:52 PM 45.3640 -73.8810 261° West 258 297 8,900 3,579 Climbing FlightAware ADS-B
Sun 08:39:39 PM 45.3690 -73.9680 275° West 304 350 11,600 3,708 Climbing FlightAware ADS-B
Sun 08:40:21 PM 45.3760 -74.0570 276° West 329 379 14,400 3,900 Climbing FlightAware ADS-B
Sun 08:40:59 PM 45.3850 -74.1370 279° West 341 392 16,800 3,714 Climbing FlightAware ADS-B
Sun 08:41:45 PM 45.3970 -74.2430 279° West 357 411 19,600 3,545 Climbing FlightAware ADS-B
Sun 08:42:27 PM 45.4080 -74.3430 279° West 368 423 22,000 3,152 Climbing FlightAware ADS-B
Sun 08:43:24 PM 45.4080 -74.4800 270° West 386 444 24,800 3,000 Climbing FlightAware ADS-B
Sun 08:44:07 PM 45.3900 -74.5910 257° West 396 456 27,000 2,747 Climbing FlightAware ADS-B
Sun 08:44:47 PM 45.3730 -74.6920 257° West 406 467 28,600 2,643 Climbing FlightAware ADS-B
Sun 08:45:31 PM 45.3530 -74.8050 256° West 406 467 30,700 2,930 Climbing FlightAware ADS-B
Sun 08:46:13 PM 45.3350 -74.9140 257° West 398 458 32,800 2,444 Climbing FlightAware ADS-B
Sun 08:46:52 PM 45.3090 -75.0080 249° West 409 471 34,000 867 Climbing FlightAware ADS-B
Sun 08:47:36 PM 45.2550 -75.0900 227° Southwest 419 482 34,000  Level FlightAware ADS-B
Sun 08:48:19 PM 45.1920 -75.1810 226° Southwest 412 474 34,000  Level FlightAware ADS-B
Sun 08:49:31 PM 45.0980 -75.3180 226° Southwest 405 466 34,000  Level FlightAware ADS-B
Sun 08:50:07 PM 45.0510 -75.3850 225° Southwest 401 461 34,000  Level FlightAware ADS-B
Sun 08:50:51 PM 44.9950 -75.4690 227° Southwest 401 461 34,000  Level FlightAware ADS-B
Sun 08:51:28 PM 44.9480 -75.5380 226° Southwest 401 461 34,000  Level FlightAware ADS-B
Sun 08:52:09 PM 44.8970 -75.6140 227° Southwest 405 466 34,000  Level FlightAware ADS-B
Sun 08:52:49 PM 44.8430 -75.6940 226° Southwest 406 467 34,000  Level FlightAware ADS-B
Sun 08:53:25 PM 44.7980 -75.7630 227° Southwest 406 467 34,000  Level FlightAware ADS-B
Sun 08:54:05 PM 44.7510 -75.8420 230° Southwest 407 468 34,000  Level FlightAware ADS-B
Sun 08:54:47 PM 44.7000 -75.9300 231° Southwest 407 468 34,000  Level FlightAware ADS-B
Sun 08:55:30 PM 44.6520 -76.0130 231° Southwest 407 468 34,000  Level FlightAware ADS-B
Sun 08:56:00 PM 44.6180 -76.0760 233° Southwest 406 467 34,000  Level FlightAware ADS-B
Sun 08:56:35 PM 44.5790 -76.1490 233° Southwest 405 466 34,000  Level FlightAware ADS-B
Sun 08:57:15 PM 44.5420 -76.2440 241° Southwest 405 466 34,000  Level FlightAware ADS-B
Sun 08:57:50 PM 44.5110 -76.3260 242° Southwest 405 466 34,000  Level FlightAware ADS-B
Sun 08:58:35 PM 44.4730 -76.4300 243° Southwest 407 468 34,000  Level FlightAware ADS-B
Sun 08:59:20 PM 44.4380 -76.5330 245° Southwest 407 468 34,000  Level FlightAware ADS-B
Sun 09:00:05 PM 44.4270 -76.6500 263° West 409 471 34,000  Level FlightAware ADS-B
Sun 09:00:45 PM 44.4210 -76.7560 266° West 406 467 34,000  Level FlightAware ADS-B
Sun 09:01:20 PM 44.4170 -76.8520 267° West 407 468 34,000  Level FlightAware ADS-B
Sun 09:02:00 PM 44.4120 -76.9540 266° West 404 465 34,000  Level FlightAware ADS-B
Sun 09:02:45 PM 44.4070 -77.0710 267° West 403 464 34,000 -353 Level FlightAware ADS-B
Sun 09:03:25 PM 44.4020 -77.1770 266° West 412 474 33,500 -1,482 Descending FlightAware ADS-B
Sun 09:04:10 PM 44.3960 -77.3010 266° West 432 497 31,900 -1,931 Descending FlightAware ADS-B
Sun 09:04:52 PM 44.3900 -77.4110 266° West 440 506 30,700 -1,650 Descending FlightAware ADS-B
Sun 09:05:30 PM 44.3840 -77.5260 266° West 437 503 29,700 -1,373 Descending FlightAware ADS-B
Sun 09:06:15 PM 44.3780 -77.6520 266° West 431 496 28,800 -1,275 Descending FlightAware ADS-B
Sun 09:06:50 PM 44.3730 -77.7410 266° West 426 490 28,000 -2,041 Descending FlightAware ADS-B
Sun 09:07:52 PM 44.3640 -77.9070 266° West 412 474 25,500 -2,457 Descending FlightAware ADS-B
Sun 09:08:35 PM 44.3570 -78.0250 265° West 401 461 23,700 -2,455 Descending FlightAware ADS-B
Sun 09:09:20 PM 44.3280 -78.1330 249° West 393 452 21,900 -2,329 Descending FlightAware ADS-B
Sun 09:10:00 PM 44.2930 -78.2170 240° Southwest 386 444 20,400 -2,250 Descending FlightAware ADS-B
Sun 09:10:40 PM 44.2560 -78.3030 239° Southwest 378 435 18,900 -2,250 Descending FlightAware ADS-B
Sun 09:11:20 PM 44.2230 -78.3800 239° Southwest 372 428 17,400 -2,259 Descending FlightAware ADS-B
Sun 09:12:05 PM 44.1820 -78.4780 240° Southwest 362 417 15,700 -2,250 Descending FlightAware ADS-B
Sun 09:12:40 PM 44.1530 -78.5470 240° Southwest 354 407 14,400 -2,175 Descending FlightAware ADS-B
Sun 09:13:25 PM 44.1150 -78.6350 239° Southwest 345 397 12,800 -2,067 Descending FlightAware ADS-B
Sun 09:14:10 PM 44.0800 -78.7170 239° Southwest 335 386 11,300 -1,600 Descending FlightAware ADS-B
Sun 09:14:55 PM 44.0440 -78.7980 238° Southwest 313 360 10,400 -847 Descending FlightAware ADS-B
Sun 09:15:35 PM 44.0090 -78.8540 229° Southwest 281 323 10,100 -554 Descending FlightAware ADS-B
Sun 09:16:00 PM 43.9910 -78.8820 228° Southwest 268 308 9,800 -1,200 Descending FlightAware ADS-B
Sun 09:16:15 PM 43.9750 -78.9050 226° Southwest 268 308 9,300 -1,733 Descending FlightAware ADS-B
Sun 09:16:45 PM 43.9490 -78.9440 227° Southwest 269 310 8,500 -1,448 Descending FlightAware ADS-B
Sun 09:17:13 PM 43.9280 -78.9760 228° Southwest 270 311 7,900 -1,269 Descending FlightAware ADS-B
Sun 09:17:37 PM 43.9130 -78.9980 227° Southwest 268 308 7,400 -1,154 Descending FlightAware ADS-B
Sun 09:18:05 PM 43.8830 -79.0430 227° Southwest 247 284 6,900 -500 Descending FlightAware ADS-B
Sun 09:18:25 PM 43.8740 -79.0700 245° Southwest 229 264 7,000 -400 Climbing FlightAware ADS-B
Sun 09:19:05 PM 43.8780 -79.1270 276° West 222 255 6,500 -923 Descending FlightAware ADS-B
Sun 09:19:30 PM 43.8820 -79.1620 279° West 222 255 6,000 -1,200 Descending FlightAware ADS-B
Sun 09:20:00 PM 43.8870 -79.2050 279° West 219 252 5,400 -1,200 Descending FlightAware ADS-B
Sun 09:20:15 PM 43.8900 -79.2250 282° West 218 251 5,100 -667 Descending FlightAware ADS-B
Sun 09:20:45 PM 43.8950 -79.2660 280° West 204 235 4,900 -107 Descending FlightAware ADS-B
Sun 09:21:11 PM 43.8990 -79.2960 280° West 199 229 5,000 92 Climbing FlightAware ADS-B
Sun 09:21:50 PM 43.8930 -79.3460 261° West 210 242 5,000 -111 Level FlightAware ADS-B
Sun 09:22:05 PM 43.8830 -79.3610 227° Southwest 213 245 4,900 -400 Descending FlightAware ADS-B
Sun 09:22:35 PM 43.8630 -79.3890 225° Southwest 205 236 4,700 -300 Descending FlightAware ADS-B
Sun 09:23:05 PM 43.8430 -79.4180 226° Southwest 203 234 4,600 -545 Descending FlightAware ADS-B
Sun 09:23:30 PM 43.8270 -79.4420 227° Southwest 207 238 4,200 -1,024 Descending FlightAware ADS-B
Sun 09:23:46 PM 43.8170 -79.4560 225° Southwest 205 236 3,900 -1,067 Descending FlightAware ADS-B
Sun 09:24:15 PM 43.7980 -79.4840 227° Southwest 194 223 3,400 -1,000 Descending FlightAware ADS-B
Sun 09:24:40 PM 43.7830 -79.5060 227° Southwest 180 207 3,000 -982 Descending FlightAware ADS-B
Sun 09:25:10 PM 43.7660 -79.5300 226° Southwest 169 194 2,500 -900 Descending FlightAware ADS-B
Sun 09:25:40 PM 43.7510 -79.5520 227° Southwest 158 182 2,100 -764 Descending FlightAware ADS-B
Sun 09:26:05 PM 43.7390 -79.5700 227° Southwest 158 182 1,800 -720 Descending FlightAware ADS-B
Sun 09:26:30 PM 43.7270 -79.5880 227° Southwest 138 159 1,500 -800 Descending FlightAware ADS-B
Sun 09:26:50 PM 43.7180 -79.6000 224° Southwest 128 147 1,200 -667 Descending FlightAware ADS-B
Sun 09:27:15 PM 43.7080 -79.6140 225° Southwest 130 150 1,000 -655 Descending FlightAware ADS-B
Sun 09:27:45 PM 43.6950 -79.6330 227° Southwest 131 151 600 -414 Descending FlightAware ADS-B
Sun 09:28:13 PM 43.6850 -79.6480 227° Southwest 131 151 600  Level FlightAware ADS-B

Login

Don't have an account? Register now (free) for customized features, flight alerts, and more!